Grizzly Air Cargo 5142


PANC
Ted Stevens Anchorage International Airport
Anchorage, Alaska, US
CYZF
Yellowknife Airport
Yellowknife, , CA

Activity Log

Date Flight Route Aircraft Duration
09/08/2020 GRZ5142 GKN ORT YZF B722 2h 04m
09/05/2020 GRZ5142 TED J511 GKN J124 ORT NCA17 YZF B722 2h 23m
10/19/2019 GRZ539 TED J511 GKN J124 ORT NCA17 YZF B738 2h 52m
09/09/2019 GRZ542 TED J511 GKN J124 ORT NCA17 YZF B722 2h 18m
09/06/2019 GRZ539 TED J511 GKN J124 ORT NCA17 YZF B738 2h 27m
09/01/2019 GRZ542 TED J511 GKN J124 ORT NCA17 YZF B722 2h 10m
08/31/2019 GRZ542 TED J511 GKN J124 ORT NCA17 YZF B722 2h 10m
08/19/2019 GRZ542 TED J511 GKN J124 ORT NCA17 YZF B722 2h 25m
06/29/2019 GRZ541 TED J511 GKN J124 ORT NCA17 YZF B722 2h 25m
06/06/2019 GRZ541 TED J511 GKN J124 ORT NCA17 YZF B722 2h 35m

Route Details

Aircraft Information
Primary: Boeing 727-200F
Backup: Boeing 737-800BCF
Route Data
Distance: 1002nm
Sched. Duration: 2h 50m
Avg. Duration: 2h 23m (-27m)
Times Flown: 10
Recm'd Route: TED J511 GKN J124 ORT NCA17 YZF
Planned Altitude: 35,000ft
Origin Wx: PANC 292002Z 00000KT 10SM BKN010 BKN070 M04/M06 A2994 RMK AO2 T10391061
Dest. Wx: CYZF 291500Z 30006KT 15SM -SN OVC031 M08/M10 A3002 RMK SC8 SLP186
Notes:

Financial History
Total Freight: 301,172lbs
Average Load: 30,117lbs/flt
Fuel Used: 189,332lbs
Avg. Fuel Used: 18,933lbs/flt
Fuel Expense: $237,025
Avg. Fuel Expense: $23,703
Avg. Fuel Cost: $1.25/lbs
Total Gross Income: $847,445
Pilot Pay: $2,350
Total Expenses: $92,044
Total Revenue: $512,574
Average Revenue: $84,744.53